sensor_id;sensor_type;location;lat;lon;timestamp;temperature;humidity
37560;DHT22;23398;50.928;7.084;2023-02-28T00:00:12;2.20;57.90
37560;DHT22;23398;50.928;7.084;2023-02-28T00:02:39;2.20;58.00
37560;DHT22;23398;50.928;7.084;2023-02-28T00:05:06;2.10;58.10
37560;DHT22;23398;50.928;7.084;2023-02-28T00:07:32;2.10;58.40
37560;DHT22;23398;50.928;7.084;2023-02-28T00:09:57;2.10;58.60
37560;DHT22;23398;50.928;7.084;2023-02-28T00:12:23;2.00;58.50
37560;DHT22;23398;50.928;7.084;2023-02-28T00:14:50;2.00;58.40
37560;DHT22;23398;50.928;7.084;2023-02-28T00:17:15;1.90;58.30
37560;DHT22;23398;50.928;7.084;2023-02-28T00:19:43;1.90;58.30
37560;DHT22;23398;50.928;7.084;2023-02-28T00:22:09;1.90;58.40
37560;DHT22;23398;50.928;7.084;2023-02-28T00:24:34;1.90;58.40
37560;DHT22;23398;50.928;7.084;2023-02-28T00:27:00;1.90;58.10
37560;DHT22;23398;50.928;7.084;2023-02-28T00:29:26;1.80;57.80
37560;DHT22;23398;50.928;7.084;2023-02-28T00:31:51;1.90;57.60
37560;DHT22;23398;50.928;7.084;2023-02-28T00:34:17;1.90;57.50
37560;DHT22;23398;50.928;7.084;2023-02-28T00:36:42;1.90;57.50
37560;DHT22;23398;50.928;7.084;2023-02-28T00:39:11;1.90;57.50
37560;DHT22;23398;50.928;7.084;2023-02-28T00:41:36;2.00;57.40
37560;DHT22;23398;50.928;7.084;2023-02-28T00:44:02;2.00;57.20
37560;DHT22;23398;50.928;7.084;2023-02-28T00:46:28;2.10;57.30
37560;DHT22;23398;50.928;7.084;2023-02-28T00:48:53;2.10;57.20
37560;DHT22;23398;50.928;7.084;2023-02-28T00:51:19;2.20;57.20
37560;DHT22;23398;50.928;7.084;2023-02-28T00:53:44;2.20;57.20
37560;DHT22;23398;50.928;7.084;2023-02-28T00:56:10;2.30;57.20
37560;DHT22;23398;50.928;7.084;2023-02-28T00:58:36;2.40;57.30
37560;DHT22;23398;50.928;7.084;2023-02-28T01:01:02;2.40;57.20
37560;DHT22;23398;50.928;7.084;2023-02-28T01:03:28;2.40;57.10
37560;DHT22;23398;50.928;7.084;2023-02-28T01:05:53;2.50;57.00
37560;DHT22;23398;50.928;7.084;2023-02-28T01:08:19;2.50;57.00
37560;DHT22;23398;50.928;7.084;2023-02-28T01:10:45;2.50;56.80
37560;DHT22;23398;50.928;7.084;2023-02-28T01:13:11;2.50;56.80
37560;DHT22;23398;50.928;7.084;2023-02-28T01:15:38;2.60;56.80
37560;DHT22;23398;50.928;7.084;2023-02-28T01:18:05;2.60;56.80
37560;DHT22;23398;50.928;7.084;2023-02-28T01:20:30;2.60;56.80
37560;DHT22;23398;50.928;7.084;2023-02-28T01:22:56;2.60;56.80
37560;DHT22;23398;50.928;7.084;2023-02-28T01:25:21;2.60;56.70
37560;DHT22;23398;50.928;7.084;2023-02-28T01:27:47;2.60;56.80
37560;DHT22;23398;50.928;7.084;2023-02-28T01:30:13;2.60;56.80
37560;DHT22;23398;50.928;7.084;2023-02-28T01:32:39;2.60;56.70
37560;DHT22;23398;50.928;7.084;2023-02-28T01:35:05;2.60;56.80
37560;DHT22;23398;50.928;7.084;2023-02-28T01:37:31;2.70;56.80
37560;DHT22;23398;50.928;7.084;2023-02-28T01:39:56;2.60;56.60
37560;DHT22;23398;50.928;7.084;2023-02-28T01:42:22;2.60;56.70
37560;DHT22;23398;50.928;7.084;2023-02-28T01:47:36;2.60;56.90
37560;DHT22;23398;50.928;7.084;2023-02-28T01:50:07;2.60;56.70
37560;DHT22;23398;50.928;7.084;2023-02-28T01:52:34;2.60;56.50
37560;DHT22;23398;50.928;7.084;2023-02-28T01:55:02;2.60;56.50
37560;DHT22;23398;50.928;7.084;2023-02-28T01:57:34;2.60;56.60
37560;DHT22;23398;50.928;7.084;2023-02-28T02:00:25;2.60;56.60
37560;DHT22;23398;50.928;7.084;2023-02-28T02:03:06;2.60;56.80
37560;DHT22;23398;50.928;7.084;2023-02-28T02:05:33;2.60;56.60
37560;DHT22;23398;50.928;7.084;2023-02-28T02:08:05;2.60;56.40
37560;DHT22;23398;50.928;7.084;2023-02-28T02:10:35;2.60;56.50
37560;DHT22;23398;50.928;7.084;2023-02-28T02:15:34;2.60;56.40
37560;DHT22;23398;50.928;7.084;2023-02-28T02:18:35;2.50;56.20
37560;DHT22;23398;50.928;7.084;2023-02-28T02:32:20;2.30;56.30
37560;DHT22;23398;50.928;7.084;2023-02-28T02:37:52;2.20;56.60
37560;DHT22;23398;50.928;7.084;2023-02-28T02:40:45;2.20;56.60
37560;DHT22;23398;50.928;7.084;2023-02-28T02:43:20;2.20;56.80
37560;DHT22;23398;50.928;7.084;2023-02-28T02:45:54;2.20;57.00
37560;DHT22;23398;50.928;7.084;2023-02-28T02:48:29;2.10;57.10
37560;DHT22;23398;50.928;7.084;2023-02-28T02:50:58;2.30;57.30
37560;DHT22;23398;50.928;7.084;2023-02-28T02:53:36;2.10;57.10
37560;DHT22;23398;50.928;7.084;2023-02-28T02:56:04;2.10;57.10
37560;DHT22;23398;50.928;7.084;2023-02-28T02:58:37;2.10;57.00
37560;DHT22;23398;50.928;7.084;2023-02-28T03:01:08;2.00;57.10
37560;DHT22;23398;50.928;7.084;2023-02-28T03:03:35;2.00;57.10
37560;DHT22;23398;50.928;7.084;2023-02-28T03:06:01;2.00;57.30
37560;DHT22;23398;50.928;7.084;2023-02-28T03:08:29;2.00;57.60
37560;DHT22;23398;50.928;7.084;2023-02-28T03:11:01;2.00;57.80
37560;DHT22;23398;50.928;7.084;2023-02-28T03:30:29;1.70;57.80
37560;DHT22;23398;50.928;7.084;2023-02-28T03:33:05;1.70;58.00
37560;DHT22;23398;50.928;7.084;2023-02-28T03:35:39;1.60;57.70
37560;DHT22;23398;50.928;7.084;2023-02-28T03:38:14;1.60;57.70
37560;DHT22;23398;50.928;7.084;2023-02-28T03:40:48;1.60;57.70
37560;DHT22;23398;50.928;7.084;2023-02-28T03:43:20;1.50;57.60
37560;DHT22;23398;50.928;7.084;2023-02-28T03:45:50;1.50;57.50
37560;DHT22;23398;50.928;7.084;2023-02-28T03:48:27;1.50;57.30
37560;DHT22;23398;50.928;7.084;2023-02-28T03:50:57;1.50;57.20
37560;DHT22;23398;50.928;7.084;2023-02-28T03:53:35;1.60;57.10
37560;DHT22;23398;50.928;7.084;2023-02-28T03:56:24;1.60;57.10
37560;DHT22;23398;50.928;7.084;2023-02-28T03:59:14;1.60;56.90
37560;DHT22;23398;50.928;7.084;2023-02-28T04:01:46;1.60;56.80
37560;DHT22;23398;50.928;7.084;2023-02-28T04:04:13;1.60;56.70
37560;DHT22;23398;50.928;7.084;2023-02-28T04:06:40;1.70;56.70
37560;DHT22;23398;50.928;7.084;2023-02-28T04:09:09;1.70;56.60
37560;DHT22;23398;50.928;7.084;2023-02-28T04:11:40;1.70;56.50
37560;DHT22;23398;50.928;7.084;2023-02-28T04:14:08;1.70;56.40
37560;DHT22;23398;50.928;7.084;2023-02-28T04:16:36;1.80;56.40
37560;DHT22;23398;50.928;7.084;2023-02-28T04:19:04;1.80;56.30
37560;DHT22;23398;50.928;7.084;2023-02-28T04:21:32;1.90;56.40
37560;DHT22;23398;50.928;7.084;2023-02-28T04:23:58;1.90;56.40
37560;DHT22;23398;50.928;7.084;2023-02-28T04:26:32;1.90;56.20
37560;DHT22;23398;50.928;7.084;2023-02-28T04:28:58;1.90;56.20
37560;DHT22;23398;50.928;7.084;2023-02-28T04:31:23;1.90;56.00
37560;DHT22;23398;50.928;7.084;2023-02-28T04:33:49;2.00;56.20
37560;DHT22;23398;50.928;7.084;2023-02-28T04:36:15;2.00;56.10
37560;DHT22;23398;50.928;7.084;2023-02-28T04:38:43;2.00;56.00
37560;DHT22;23398;50.928;7.084;2023-02-28T04:41:09;2.00;56.00
37560;DHT22;23398;50.928;7.084;2023-02-28T04:43:35;2.00;56.00
37560;DHT22;23398;50.928;7.084;2023-02-28T04:46:03;2.00;55.90
37560;DHT22;23398;50.928;7.084;2023-02-28T04:48:31;2.00;55.80
37560;DHT22;23398;50.928;7.084;2023-02-28T04:51:12;2.00;55.80
37560;DHT22;23398;50.928;7.084;2023-02-28T04:53:40;2.00;55.90
37560;DHT22;23398;50.928;7.084;2023-02-28T04:56:06;2.00;55.80
37560;DHT22;23398;50.928;7.084;2023-02-28T04:58:32;2.00;55.70
37560;DHT22;23398;50.928;7.084;2023-02-28T05:01:04;2.00;55.70
37560;DHT22;23398;50.928;7.084;2023-02-28T05:03:30;2.00;55.80
37560;DHT22;23398;50.928;7.084;2023-02-28T05:05:55;2.00;55.70
37560;DHT22;23398;50.928;7.084;2023-02-28T05:08:21;2.00;55.70
37560;DHT22;23398;50.928;7.084;2023-02-28T05:10:47;2.00;55.60
37560;DHT22;23398;50.928;7.084;2023-02-28T05:13:12;2.00;55.50
37560;DHT22;23398;50.928;7.084;2023-02-28T05:15:38;2.00;55.60
37560;DHT22;23398;50.928;7.084;2023-02-28T05:18:04;2.00;55.70
37560;DHT22;23398;50.928;7.084;2023-02-28T05:20:29;2.00;55.60
37560;DHT22;23398;50.928;7.084;2023-02-28T05:22:56;2.00;55.50
37560;DHT22;23398;50.928;7.084;2023-02-28T05:25:23;1.60;55.30
37560;DHT22;23398;50.928;7.084;2023-02-28T05:27:48;2.00;55.60
37560;DHT22;23398;50.928;7.084;2023-02-28T05:30:14;2.00;55.70
37560;DHT22;23398;50.928;7.084;2023-02-28T05:32:41;2.00;55.70
37560;DHT22;23398;50.928;7.084;2023-02-28T05:35:10;2.00;55.70
37560;DHT22;23398;50.928;7.084;2023-02-28T05:37:37;2.00;55.70
37560;DHT22;23398;50.928;7.084;2023-02-28T05:40:03;2.00;55.70
37560;DHT22;23398;50.928;7.084;2023-02-28T05:42:31;2.00;55.80
37560;DHT22;23398;50.928;7.084;2023-02-28T05:44:58;2.10;55.80
37560;DHT22;23398;50.928;7.084;2023-02-28T05:47:24;2.10;55.80
37560;DHT22;23398;50.928;7.084;2023-02-28T05:49:49;2.10;55.80
37560;DHT22;23398;50.928;7.084;2023-02-28T05:52:15;2.10;55.80
37560;DHT22;23398;50.928;7.084;2023-02-28T05:54:41;2.10;55.80
37560;DHT22;23398;50.928;7.084;2023-02-28T05:57:07;2.10;55.80
37560;DHT22;23398;50.928;7.084;2023-02-28T05:59:32;2.10;55.80
37560;DHT22;23398;50.928;7.084;2023-02-28T06:01:58;1.50;55.40
37560;DHT22;23398;50.928;7.084;2023-02-28T06:04:24;2.10;55.90
37560;DHT22;23398;50.928;7.084;2023-02-28T06:06:50;2.10;55.80
37560;DHT22;23398;50.928;7.084;2023-02-28T06:09:17;2.10;55.60
37560;DHT22;23398;50.928;7.084;2023-02-28T06:11:43;2.00;55.40
37560;DHT22;23398;50.928;7.084;2023-02-28T06:14:14;2.00;55.40
37560;DHT22;23398;50.928;7.084;2023-02-28T06:16:40;2.00;55.40
37560;DHT22;23398;50.928;7.084;2023-02-28T06:19:06;1.90;55.30
37560;DHT22;23398;50.928;7.084;2023-02-28T06:21:33;1.90;55.40
37560;DHT22;23398;50.928;7.084;2023-02-28T06:23:58;1.80;55.40
37560;DHT22;23398;50.928;7.084;2023-02-28T06:26:24;1.80;55.60
37560;DHT22;23398;50.928;7.084;2023-02-28T06:28:50;1.80;55.60
37560;DHT22;23398;50.928;7.084;2023-02-28T06:31:17;1.70;55.70
37560;DHT22;23398;50.928;7.084;2023-02-28T06:33:44;1.70;55.90
37560;DHT22;23398;50.928;7.084;2023-02-28T06:36:12;1.60;55.90
37560;DHT22;23398;50.928;7.084;2023-02-28T06:38:38;1.60;56.10
37560;DHT22;23398;50.928;7.084;2023-02-28T06:41:04;1.60;56.00
37560;DHT22;23398;50.928;7.084;2023-02-28T06:43:38;1.60;56.00
37560;DHT22;23398;50.928;7.084;2023-02-28T06:46:06;1.60;56.00
37560;DHT22;23398;50.928;7.084;2023-02-28T06:48:32;1.70;56.20
37560;DHT22;23398;50.928;7.084;2023-02-28T06:51:13;1.70;56.30
37560;DHT22;23398;50.928;7.084;2023-02-28T06:53:40;1.70;56.30
37560;DHT22;23398;50.928;7.084;2023-02-28T06:56:07;1.70;56.30
37560;DHT22;23398;50.928;7.084;2023-02-28T06:58:34;1.80;56.30
37560;DHT22;23398;50.928;7.084;2023-02-28T07:01:00;1.80;56.30
37560;DHT22;23398;50.928;7.084;2023-02-28T07:03:26;1.80;56.40
37560;DHT22;23398;50.928;7.084;2023-02-28T07:05:51;1.90;56.30
37560;DHT22;23398;50.928;7.084;2023-02-28T07:08:17;1.90;56.30
37560;DHT22;23398;50.928;7.084;2023-02-28T07:10:43;1.90;56.20
37560;DHT22;23398;50.928;7.084;2023-02-28T07:13:09;2.00;56.20
37560;DHT22;23398;50.928;7.084;2023-02-28T07:15:36;2.60;56.60
37560;DHT22;23398;50.928;7.084;2023-02-28T07:18:01;2.10;56.00
37560;DHT22;23398;50.928;7.084;2023-02-28T07:20:27;2.20;56.00
37560;DHT22;23398;50.928;7.084;2023-02-28T07:22:52;2.30;56.10
37560;DHT22;23398;50.928;7.084;2023-02-28T07:25:26;2.40;56.00
37560;DHT22;23398;50.928;7.084;2023-02-28T07:27:52;2.50;55.90
37560;DHT22;23398;50.928;7.084;2023-02-28T07:30:18;2.60;55.70
37560;DHT22;23398;50.928;7.084;2023-02-28T07:32:44;2.70;55.70
37560;DHT22;23398;50.928;7.084;2023-02-28T07:35:10;2.80;55.60
37560;DHT22;23398;50.928;7.084;2023-02-28T07:37:35;3.00;55.70
37560;DHT22;23398;50.928;7.084;2023-02-28T07:40:06;3.10;55.80
37560;DHT22;23398;50.928;7.084;2023-02-28T07:42:34;3.30;56.20
37560;DHT22;23398;50.928;7.084;2023-02-28T07:45:00;3.60;57.00
37560;DHT22;23398;50.928;7.084;2023-02-28T07:47:25;4.00;57.80
37560;DHT22;23398;50.928;7.084;2023-02-28T07:49:51;4.50;58.40
37560;DHT22;23398;50.928;7.084;2023-02-28T07:52:17;5.10;58.70
37560;DHT22;23398;50.928;7.084;2023-02-28T07:54:42;5.80;58.60
37560;DHT22;23398;50.928;7.084;2023-02-28T07:57:08;6.50;58.20
37560;DHT22;23398;50.928;7.084;2023-02-28T07:59:34;7.20;57.70
37560;DHT22;23398;50.928;7.084;2023-02-28T08:01:59;7.90;57.10
37560;DHT22;23398;50.928;7.084;2023-02-28T08:04:25;8.70;56.30
37560;DHT22;23398;50.928;7.084;2023-02-28T08:06:51;9.40;55.60
37560;DHT22;23398;50.928;7.084;2023-02-28T08:09:19;10.10;54.10
37560;DHT22;23398;50.928;7.084;2023-02-28T08:11:44;10.80;53.30
37560;DHT22;23398;50.928;7.084;2023-02-28T08:14:10;11.50;52.60
37560;DHT22;23398;50.928;7.084;2023-02-28T08:16:36;12.10;52.00
37560;DHT22;23398;50.928;7.084;2023-02-28T08:19:01;12.80;50.80
37560;DHT22;23398;50.928;7.084;2023-02-28T08:21:27;13.40;49.80
37560;DHT22;23398;50.928;7.084;2023-02-28T08:23:52;13.90;48.50
37560;DHT22;23398;50.928;7.084;2023-02-28T08:26:19;14.30;47.60
37560;DHT22;23398;50.928;7.084;2023-02-28T08:28:45;14.70;47.30
37560;DHT22;23398;50.928;7.084;2023-02-28T08:31:12;15.10;46.80
37560;DHT22;23398;50.928;7.084;2023-02-28T08:33:39;15.50;45.70
37560;DHT22;23398;50.928;7.084;2023-02-28T08:36:06;15.90;45.70
37560;DHT22;23398;50.928;7.084;2023-02-28T08:38:32;16.40;45.50
37560;DHT22;23398;50.928;7.084;2023-02-28T08:41:00;16.90;45.20
37560;DHT22;23398;50.928;7.084;2023-02-28T08:43:26;17.30;43.90
37560;DHT22;23398;50.928;7.084;2023-02-28T08:45:52;17.50;42.60
37560;DHT22;23398;50.928;7.084;2023-02-28T08:48:18;17.80;42.20
37560;DHT22;23398;50.928;7.084;2023-02-28T08:50:44;18.10;42.60
37560;DHT22;23398;50.928;7.084;2023-02-28T08:53:09;18.40;41.90
37560;DHT22;23398;50.928;7.084;2023-02-28T08:55:35;18.50;41.20
37560;DHT22;23398;50.928;7.084;2023-02-28T08:58:01;18.70;40.50
37560;DHT22;23398;50.928;7.084;2023-02-28T09:00:27;18.90;40.20
37560;DHT22;23398;50.928;7.084;2023-02-28T09:02:52;19.20;39.60
37560;DHT22;23398;50.928;7.084;2023-02-28T09:05:19;19.20;39.90
37560;DHT22;23398;50.928;7.084;2023-02-28T09:07:45;19.50;39.30
37560;DHT22;23398;50.928;7.084;2023-02-28T09:10:10;19.80;39.10
37560;DHT22;23398;50.928;7.084;2023-02-28T09:12:36;20.00;36.60
37560;DHT22;23398;50.928;7.084;2023-02-28T09:15:02;20.10;36.80
37560;DHT22;23398;50.928;7.084;2023-02-28T09:17:28;20.10;36.30
37560;DHT22;23398;50.928;7.084;2023-02-28T09:19:54;19.90;35.40
37560;DHT22;23398;50.928;7.084;2023-02-28T09:22:19;19.80;35.50
37560;DHT22;23398;50.928;7.084;2023-02-28T09:24:45;19.70;34.10
37560;DHT22;23398;50.928;7.084;2023-02-28T09:27:10;19.50;34.20
37560;DHT22;23398;50.928;7.084;2023-02-28T09:29:36;19.50;34.70
37560;DHT22;23398;50.928;7.084;2023-02-28T09:32:02;19.50;34.50
37560;DHT22;23398;50.928;7.084;2023-02-28T09:34:28;19.60;35.10
37560;DHT22;23398;50.928;7.084;2023-02-28T09:36:57;19.70;34.30
37560;DHT22;23398;50.928;7.084;2023-02-28T09:39:23;19.80;33.10
37560;DHT22;23398;50.928;7.084;2023-02-28T09:41:51;19.80;33.80
37560;DHT22;23398;50.928;7.084;2023-02-28T09:44:40;19.90;34.00
37560;DHT22;23398;50.928;7.084;2023-02-28T09:47:13;20.10;33.90
37560;DHT22;23398;50.928;7.084;2023-02-28T09:49:43;20.30;33.80
37560;DHT22;23398;50.928;7.084;2023-02-28T09:52:19;20.30;33.00
37560;DHT22;23398;50.928;7.084;2023-02-28T09:54:46;20.50;32.80
37560;DHT22;23398;50.928;7.084;2023-02-28T09:57:27;20.40;32.50
37560;DHT22;23398;50.928;7.084;2023-02-28T10:05:17;20.40;31.40
37560;DHT22;23398;50.928;7.084;2023-02-28T10:10:24;20.70;32.50
37560;DHT22;23398;50.928;7.084;2023-02-28T10:12:54;21.00;33.20
37560;DHT22;23398;50.928;7.084;2023-02-28T10:15:23;21.10;31.60
37560;DHT22;23398;50.928;7.084;2023-02-28T10:18:00;21.10;31.60
37560;DHT22;23398;50.928;7.084;2023-02-28T10:20:32;20.90;30.80
37560;DHT22;23398;50.928;7.084;2023-02-28T10:23:04;20.60;31.20
37560;DHT22;23398;50.928;7.084;2023-02-28T10:25:36;20.30;30.80
37560;DHT22;23398;50.928;7.084;2023-02-28T10:28:10;20.00;30.10
37560;DHT22;23398;50.928;7.084;2023-02-28T12:17:01;4.90;40.90
37560;DHT22;23398;50.928;7.084;2023-02-28T12:19:52;5.10;40.90
37560;DHT22;23398;50.928;7.084;2023-02-28T12:27:44;6.30;41.00
37560;DHT22;23398;50.928;7.084;2023-02-28T12:30:30;6.60;40.60
37560;DHT22;23398;50.928;7.084;2023-02-28T12:33:03;6.90;40.30
37560;DHT22;23398;50.928;7.084;2023-02-28T12:38:27;7.40;40.10
37560;DHT22;23398;50.928;7.084;2023-02-28T12:41:00;7.70;40.70
37560;DHT22;23398;50.928;7.084;2023-02-28T12:43:34;7.80;40.60
37560;DHT22;23398;50.928;7.084;2023-02-28T12:48:46;8.10;40.60
37560;DHT22;23398;50.928;7.084;2023-02-28T12:51:13;8.30;40.30
37560;DHT22;23398;50.928;7.084;2023-02-28T12:56:41;8.40;40.00
37560;DHT22;23398;50.928;7.084;2023-02-28T12:59:18;8.50;40.30
37560;DHT22;23398;50.928;7.084;2023-02-28T13:02:09;8.50;40.10
37560;DHT22;23398;50.928;7.084;2023-02-28T13:04:47;8.60;40.30
37560;DHT22;23398;50.928;7.084;2023-02-28T13:10:07;8.70;40.00
37560;DHT22;23398;50.928;7.084;2023-02-28T13:12:34;8.70;40.00
37560;DHT22;23398;50.928;7.084;2023-02-28T13:15:25;8.70;39.90
37560;DHT22;23398;50.928;7.084;2023-02-28T13:17:56;8.80;39.60
37560;DHT22;23398;50.928;7.084;2023-02-28T13:20:26;8.90;39.80
37560;DHT22;23398;50.928;7.084;2023-02-28T13:22:54;8.90;39.90
37560;DHT22;23398;50.928;7.084;2023-02-28T13:27:55;9.00;39.60
37560;DHT22;23398;50.928;7.084;2023-02-28T13:35:45;9.20;39.30
37560;DHT22;23398;50.928;7.084;2023-02-28T13:38:23;9.20;38.60
37560;DHT22;23398;50.928;7.084;2023-02-28T13:40:49;9.20;38.30
37560;DHT22;23398;50.928;7.084;2023-02-28T13:43:17;9.30;38.40
37560;DHT22;23398;50.928;7.084;2023-02-28T13:46:10;9.30;38.00
37560;DHT22;23398;50.928;7.084;2023-02-28T13:48:37;9.30;37.90
37560;DHT22;23398;50.928;7.084;2023-02-28T13:51:37;9.40;38.80
37560;DHT22;23398;50.928;7.084;2023-02-28T13:54:39;9.40;39.10
37560;DHT22;23398;50.928;7.084;2023-02-28T13:57:23;9.40;38.20
37560;DHT22;23398;50.928;7.084;2023-02-28T14:05:36;9.50;38.00
37560;DHT22;23398;50.928;7.084;2023-02-28T14:08:16;9.50;38.20
37560;DHT22;23398;50.928;7.084;2023-02-28T14:10:48;9.50;38.30
37560;DHT22;23398;50.928;7.084;2023-02-28T14:16:06;9.60;38.30
37560;DHT22;23398;50.928;7.084;2023-02-28T14:18:34;9.60;38.40
37560;DHT22;23398;50.928;7.084;2023-02-28T14:26:17;9.70;38.40
37560;DHT22;23398;50.928;7.084;2023-02-28T14:31:35;9.70;38.70
37560;DHT22;23398;50.928;7.084;2023-02-28T14:37:15;9.70;38.90
37560;DHT22;23398;50.928;7.084;2023-02-28T14:39:43;9.70;39.00
37560;DHT22;23398;50.928;7.084;2023-02-28T14:42:34;9.60;38.80
37560;DHT22;23398;50.928;7.084;2023-02-28T14:45:01;9.60;37.90
37560;DHT22;23398;50.928;7.084;2023-02-28T14:47:35;9.60;38.60
37560;DHT22;23398;50.928;7.084;2023-02-28T14:50:03;9.60;38.60
37560;DHT22;23398;50.928;7.084;2023-02-28T14:52:31;9.60;38.60
37560;DHT22;23398;50.928;7.084;2023-02-28T14:55:00;9.60;38.60
37560;DHT22;23398;50.928;7.084;2023-02-28T14:57:34;9.60;38.40
37560;DHT22;23398;50.928;7.084;2023-02-28T15:00:27;9.60;38.30
37560;DHT22;23398;50.928;7.084;2023-02-28T15:02:54;9.60;38.60
37560;DHT22;23398;50.928;7.084;2023-02-28T15:05:30;9.60;39.00
37560;DHT22;23398;50.928;7.084;2023-02-28T15:08:13;9.60;39.20
37560;DHT22;23398;50.928;7.084;2023-02-28T15:10:42;9.60;38.60
37560;DHT22;23398;50.928;7.084;2023-02-28T15:13:12;9.60;38.40
37560;DHT22;23398;50.928;7.084;2023-02-28T15:15:42;9.60;38.40
37560;DHT22;23398;50.928;7.084;2023-02-28T15:21:15;9.60;38.40
37560;DHT22;23398;50.928;7.084;2023-02-28T15:23:45;9.60;38.70
37560;DHT22;23398;50.928;7.084;2023-02-28T15:26:17;9.60;39.00
37560;DHT22;23398;50.928;7.084;2023-02-28T15:28:44;9.50;38.40
37560;DHT22;23398;50.928;7.084;2023-02-28T15:31:27;9.50;38.40
37560;DHT22;23398;50.928;7.084;2023-02-28T15:33:55;9.50;38.80
37560;DHT22;23398;50.928;7.084;2023-02-28T15:36:25;9.50;39.20
37560;DHT22;23398;50.928;7.084;2023-02-28T15:38:53;9.60;39.20
37560;DHT22;23398;50.928;7.084;2023-02-28T15:41:27;9.60;39.50
37560;DHT22;23398;50.928;7.084;2023-02-28T15:44:27;9.70;39.80
37560;DHT22;23398;50.928;7.084;2023-02-28T15:47:05;9.90;39.60
37560;DHT22;23398;50.928;7.084;2023-02-28T15:52:39;10.20;37.90
37560;DHT22;23398;50.928;7.084;2023-02-28T15:55:28;10.30;37.70
37560;DHT22;23398;50.928;7.084;2023-02-28T15:57:57;10.50;38.20
37560;DHT22;23398;50.928;7.084;2023-02-28T16:00:27;10.50;38.00
37560;DHT22;23398;50.928;7.084;2023-02-28T16:02:53;10.60;38.00
37560;DHT22;23398;50.928;7.084;2023-02-28T16:05:26;10.60;38.00
37560;DHT22;23398;50.928;7.084;2023-02-28T16:08:06;10.50;37.90
37560;DHT22;23398;50.928;7.084;2023-02-28T16:10:36;10.40;37.60
37560;DHT22;23398;50.928;7.084;2023-02-28T16:13:02;10.30;37.60
37560;DHT22;23398;50.928;7.084;2023-02-28T16:15:38;10.20;37.40
37560;DHT22;23398;50.928;7.084;2023-02-28T16:18:12;10.10;37.60
37560;DHT22;23398;50.928;7.084;2023-02-28T16:20:37;10.00;37.90
37560;DHT22;23398;50.928;7.084;2023-02-28T16:23:03;9.90;39.00
37560;DHT22;23398;50.928;7.084;2023-02-28T16:27:59;9.70;39.30
37560;DHT22;23398;50.928;7.084;2023-02-28T16:30:27;9.60;39.30
37560;DHT22;23398;50.928;7.084;2023-02-28T16:32:56;9.50;39.30
37560;DHT22;23398;50.928;7.084;2023-02-28T16:35:23;9.40;39.40
37560;DHT22;23398;50.928;7.084;2023-02-28T16:37:52;9.30;39.40
37560;DHT22;23398;50.928;7.084;2023-02-28T16:40:23;9.20;39.30
37560;DHT22;23398;50.928;7.084;2023-02-28T16:42:52;9.10;39.40
37560;DHT22;23398;50.928;7.084;2023-02-28T16:45:22;9.10;39.60
37560;DHT22;23398;50.928;7.084;2023-02-28T16:47:48;9.00;39.90
37560;DHT22;23398;50.928;7.084;2023-02-28T16:50:18;8.90;40.10
37560;DHT22;23398;50.928;7.084;2023-02-28T16:52:44;8.90;40.10
37560;DHT22;23398;50.928;7.084;2023-02-28T16:55:10;8.80;40.10
37560;DHT22;23398;50.928;7.084;2023-02-28T16:57:36;8.70;39.90
37560;DHT22;23398;50.928;7.084;2023-02-28T17:00:04;8.70;40.10
37560;DHT22;23398;50.928;7.084;2023-02-28T17:02:30;8.60;40.20
37560;DHT22;23398;50.928;7.084;2023-02-28T17:04:56;8.50;40.30
37560;DHT22;23398;50.928;7.084;2023-02-28T17:07:21;8.40;40.30
37560;DHT22;23398;50.928;7.084;2023-02-28T17:09:47;8.40;40.40
37560;DHT22;23398;50.928;7.084;2023-02-28T17:12:12;8.30;40.40
37560;DHT22;23398;50.928;7.084;2023-02-28T17:14:38;8.20;40.30
37560;DHT22;23398;50.928;7.084;2023-02-28T17:17:05;8.10;40.30
37560;DHT22;23398;50.928;7.084;2023-02-28T17:19:31;8.00;40.50
37560;DHT22;23398;50.928;7.084;2023-02-28T17:21:56;8.00;40.70
37560;DHT22;23398;50.928;7.084;2023-02-28T17:24:22;7.90;40.70
37560;DHT22;23398;50.928;7.084;2023-02-28T17:26:48;7.80;40.80
37560;DHT22;23398;50.928;7.084;2023-02-28T17:29:20;7.80;40.90
37560;DHT22;23398;50.928;7.084;2023-02-28T17:31:45;7.70;40.90
37560;DHT22;23398;50.928;7.084;2023-02-28T17:34:11;7.60;41.20
37560;DHT22;23398;50.928;7.084;2023-02-28T17:36:43;7.50;41.40
37560;DHT22;23398;50.928;7.084;2023-02-28T17:39:11;7.50;41.90
37560;DHT22;23398;50.928;7.084;2023-02-28T17:41:41;7.40;42.40
37560;DHT22;23398;50.928;7.084;2023-02-28T17:44:08;7.30;42.50
37560;DHT22;23398;50.928;7.084;2023-02-28T17:46:34;7.20;42.90
37560;DHT22;23398;50.928;7.084;2023-02-28T17:49:00;7.10;43.10
37560;DHT22;23398;50.928;7.084;2023-02-28T17:51:26;7.00;43.40
37560;DHT22;23398;50.928;7.084;2023-02-28T17:53:52;6.90;43.40
37560;DHT22;23398;50.928;7.084;2023-02-28T17:56:23;6.80;43.80
37560;DHT22;23398;50.928;7.084;2023-02-28T17:58:49;6.70;44.30
37560;DHT22;23398;50.928;7.084;2023-02-28T18:01:16;6.50;44.40
37560;DHT22;23398;50.928;7.084;2023-02-28T18:03:42;6.50;44.40
37560;DHT22;23398;50.928;7.084;2023-02-28T18:06:14;6.30;44.40
37560;DHT22;23398;50.928;7.084;2023-02-28T18:08:40;6.20;44.50
37560;DHT22;23398;50.928;7.084;2023-02-28T18:11:06;6.10;44.50
37560;DHT22;23398;50.928;7.084;2023-02-28T18:13:49;6.00;44.50
37560;DHT22;23398;50.928;7.084;2023-02-28T18:16:16;5.90;44.50
37560;DHT22;23398;50.928;7.084;2023-02-28T18:18:42;5.80;44.60
37560;DHT22;23398;50.928;7.084;2023-02-28T18:21:10;5.70;45.00
37560;DHT22;23398;50.928;7.084;2023-02-28T18:23:36;5.70;45.50
37560;DHT22;23398;50.928;7.084;2023-02-28T18:26:06;5.60;45.60
37560;DHT22;23398;50.928;7.084;2023-02-28T18:28:32;5.50;45.60
37560;DHT22;23398;50.928;7.084;2023-02-28T18:31:05;5.40;45.50
37560;DHT22;23398;50.928;7.084;2023-02-28T18:33:31;5.30;45.70
37560;DHT22;23398;50.928;7.084;2023-02-28T18:35:56;5.30;45.70
37560;DHT22;23398;50.928;7.084;2023-02-28T18:38:22;5.20;45.80
37560;DHT22;23398;50.928;7.084;2023-02-28T18:40:55;5.10;46.00
37560;DHT22;23398;50.928;7.084;2023-02-28T18:43:21;5.10;46.10
37560;DHT22;23398;50.928;7.084;2023-02-28T18:45:47;5.00;45.80
37560;DHT22;23398;50.928;7.084;2023-02-28T18:48:12;4.90;45.90
37560;DHT22;23398;50.928;7.084;2023-02-28T18:50:39;4.90;46.40
37560;DHT22;23398;50.928;7.084;2023-02-28T18:53:06;4.80;46.70
37560;DHT22;23398;50.928;7.084;2023-02-28T18:55:32;4.70;46.90
37560;DHT22;23398;50.928;7.084;2023-02-28T18:57:58;4.70;46.80
37560;DHT22;23398;50.928;7.084;2023-02-28T19:00:24;4.60;46.80
37560;DHT22;23398;50.928;7.084;2023-02-28T19:02:50;4.60;47.30
37560;DHT22;23398;50.928;7.084;2023-02-28T19:05:17;4.50;47.20
37560;DHT22;23398;50.928;7.084;2023-02-28T19:07:44;4.40;47.30
37560;DHT22;23398;50.928;7.084;2023-02-28T19:10:10;4.40;47.70
37560;DHT22;23398;50.928;7.084;2023-02-28T19:12:36;4.30;47.90
37560;DHT22;23398;50.928;7.084;2023-02-28T19:15:06;4.30;48.00
37560;DHT22;23398;50.928;7.084;2023-02-28T19:17:32;4.20;47.90